»·PEaware :: N202SH KTOA-KVNY

N202SH :: KTOA-KVNY

FLIGHT INFORMATION

Flight Status: Arrived
Operator: Privately registered:
United States
More flights under this callsign
Pilot: Diana T. (22608)
Aircraft: CESSNA T210 TURBO CENTURION
(T210)
More flights by this aircraft type
Origin: KTOA Zamperini
United States
Destination: KVNY Van Nuys
United States
More flights between these airports :: More routes between these airports
Route: +LAX170 LIMBO V64 SMO125 SMO SMO317R CANOG
File this flight plan on PilotEdge
Remarks: TEC route SCTP2, SkyHigh SCENARIO 1
Altitude:
(Current/Filed)
4,000ft
Speed:
(Current/Filed)
150kts
Departed: 26-Dec-19 11:15 AM
Arrived: 26-Dec-19 02:31 PM
Distance/Time
Traveled:
26nm/3:16
Distance/Time
To Go:
Arrived

Flight Plot

Page will automatically refresh every two minutes.

Flight plan parsing failed; only flown route is shown


Map Options




Map Legend


Flown Route
Filed Route
Departure Airport
Arrival Airport
Navaid (VOR, NDB)
Fix

Horizontal Profiles

Position Reports

Time Latitude Longitude Heading Altitude Ground
Speed
26-Dec-19 10:27 33.803346 -118.344052 0 100ft 0kts
26-Dec-19 10:28 33.803346 -118.344052 39 100ft 0kts
26-Dec-19 10:29 33.803346 -118.344052 39 100ft 0kts
26-Dec-19 10:30 33.803346 -118.344052 39 100ft 0kts
26-Dec-19 10:31 33.803346 -118.344052 39 100ft 0kts
26-Dec-19 10:32 33.803346 -118.344052 39 100ft 0kts
26-Dec-19 10:33 33.803346 -118.344052 39 100ft 0kts
26-Dec-19 10:34 33.803346 -118.344052 39 100ft 0kts
26-Dec-19 10:35 33.803346 -118.344052 39 100ft 0kts
26-Dec-19 10:36 33.803346 -118.344052 39 100ft 0kts
26-Dec-19 10:37 33.803346 -118.344052 39 100ft 0kts
26-Dec-19 10:38 33.803346 -118.344052 39 100ft 0kts
26-Dec-19 10:39 33.803346 -118.344052 39 100ft 0kts
26-Dec-19 10:40 33.803346 -118.344052 39 100ft 0kts
26-Dec-19 10:41 33.803346 -118.344052 39 100ft 0kts
26-Dec-19 10:42 33.803346 -118.344052 39 100ft 0kts
26-Dec-19 10:43 33.803346 -118.344052 39 100ft 0kts
26-Dec-19 10:44 33.803346 -118.344052 39 100ft 0kts
26-Dec-19 10:45 33.803346 -118.344052 39 100ft 0kts
26-Dec-19 10:46 33.803346 -118.344052 39 100ft 0kts
26-Dec-19 10:47 33.803346 -118.344052 39 100ft 0kts
26-Dec-19 10:48 33.803346 -118.344052 39 100ft 0kts
26-Dec-19 10:49 33.803346 -118.344052 39 100ft 0kts
26-Dec-19 10:50 33.803346 -118.344052 39 100ft 0kts
26-Dec-19 10:51 33.803346 -118.344052 39 100ft 0kts
26-Dec-19 10:52 33.803346 -118.344052 39 100ft 0kts
26-Dec-19 10:53 33.803346 -118.344052 39 100ft 0kts
26-Dec-19 10:54 33.803346 -118.344052 39 100ft 0kts
26-Dec-19 10:55 33.803346 -118.344052 39 100ft 0kts
26-Dec-19 10:56 33.803346 -118.344052 39 100ft 0kts
26-Dec-19 10:57 33.803346 -118.344052 39 100ft 0kts
26-Dec-19 10:58 33.803346 -118.344052 39 100ft 0kts
26-Dec-19 10:59 33.803346 -118.344052 39 100ft 0kts
26-Dec-19 11:00 33.803346 -118.344052 39 100ft 0kts
26-Dec-19 11:01 33.803346 -118.344052 39 100ft 0kts
26-Dec-19 11:02 33.803346 -118.344052 39 100ft 0kts
26-Dec-19 11:03 33.803346 -118.344052 39 100ft 0kts
26-Dec-19 11:04 33.803346 -118.344052 39 100ft 0kts
26-Dec-19 11:05 33.803245 -118.343597 132 100ft 11kts
26-Dec-19 11:06 33.801390 -118.340805 134 105ft 11kts
26-Dec-19 11:07 33.799261 -118.337547 112 108ft 10kts
26-Dec-19 11:08 33.798052 -118.334516 119 108ft 8kts
26-Dec-19 11:09 33.798625 -118.333495 40 106ft 0kts
26-Dec-19 11:10 33.798625 -118.333495 40 106ft 0kts
26-Dec-19 11:11 33.798625 -118.333495 40 106ft 0kts
26-Dec-19 11:12 33.798760 -118.333412 19 106ft 8kts
26-Dec-19 11:13 33.799466 -118.333007 13 105ft 8kts
26-Dec-19 11:14 33.809059 -118.347926 307 368ft 92kts
26-Dec-19 11:15 33.825607 -118.375112 305 1223ft 103kts
26-Dec-19 11:16 33.841730 -118.404239 305 2108ft 109kts
26-Dec-19 11:18 33.859161 -118.436116 306 2988ft 116kts
26-Dec-19 11:19 33.838373 -118.445882 175 3722ft 113kts
26-Dec-19 11:20 33.803061 -118.448511 183 3971ft 142kts
26-Dec-19 11:21 33.763344 -118.453447 183 3969ft 143kts
26-Dec-19 11:22 33.742373 -118.425041 71 3972ft 140kts
26-Dec-19 11:23 33.759606 -118.382849 65 3969ft 144kts
26-Dec-19 11:24 33.770682 -118.338141 86 3968ft 143kts
26-Dec-19 11:25 33.773203 -118.292133 87 3967ft 144kts
26-Dec-19 11:26 33.775662 -118.243759 87 3967ft 144kts
26-Dec-19 11:27 33.791517 -118.204013 14 3971ft 149kts
26-Dec-19 11:28 33.822740 -118.233085 310 3969ft 155kts
26-Dec-19 11:29 33.852307 -118.270749 316 3968ft 157kts
26-Dec-19 11:30 33.879514 -118.302840 316 3969ft 157kts
26-Dec-19 11:31 33.912163 -118.341264 316 3967ft 157kts
26-Dec-19 11:32 33.942810 -118.377590 316 3968ft 156kts
26-Dec-19 11:33 33.973976 -118.414197 316 3967ft 157kts
26-Dec-19 11:34 34.005334 -118.451272 317 3968ft 158kts
26-Dec-19 11:35 34.036456 -118.487706 313 3968ft 157kts
26-Dec-19 11:36 34.064668 -118.528349 310 3970ft 156kts
26-Dec-19 11:37 34.092268 -118.569087 310 4129ft 153kts
26-Dec-19 11:38 34.118536 -118.607528 310 4614ft 149kts
26-Dec-19 11:38 34.141004 -118.638630 325 4978ft 150kts
26-Dec-19 11:39 34.182046 -118.650225 350 4991ft 163kts
26-Dec-19 11:41 34.234413 -118.661082 350 4989ft 165kts
26-Dec-19 11:42 34.278254 -118.670077 350 4988ft 156kts
26-Dec-19 11:42 34.312737 -118.677283 350 4989ft 153kts
26-Dec-19 11:43 34.354656 -118.686002 350 4989ft 152kts
26-Dec-19 11:45 34.403402 -118.695915 350 4989ft 152kts
26-Dec-19 11:45 34.437532 -118.695320 37 4988ft 149kts
26-Dec-19 11:46 34.459601 -118.652939 61 4989ft 149kts
26-Dec-19 11:47 34.479733 -118.608984 61 4999ft 149kts
26-Dec-19 11:48 34.499847 -118.565144 61 4999ft 149kts
26-Dec-19 11:49 34.489931 -118.523475 149 5001ft 149kts
26-Dec-19 11:50 34.450153 -118.515277 175 5035ft 153kts
26-Dec-19 11:51 34.406856 -118.508368 170 4989ft 156kts
26-Dec-19 11:52 34.370886 -118.505579 172 4900ft 121kts
26-Dec-19 11:53 34.335252 -118.502307 174 4300ft 131kts
26-Dec-19 11:54 34.298787 -118.499502 172 3025ft 132kts
26-Dec-19 11:55 34.265197 -118.495684 173 2133ft 128kts
26-Dec-19 11:56 34.230991 -118.492253 174 1304ft 115kts
26-Dec-19 11:57 34.198331 -118.488595 172 1319ft 120kts
26-Dec-19 11:58 34.169254 -118.474890 160 1777ft 110kts
26-Dec-19 11:59 34.141650 -118.464531 166 2462ft 104kts
26-Dec-19 12:00 34.114727 -118.457990 164 3302ft 99kts
26-Dec-19 12:01 34.089076 -118.454034 177 4065ft 101kts
26-Dec-19 12:02 34.061355 -118.454871 183 4721ft 104kts
26-Dec-19 12:03 34.030916 -118.455085 180 4615ft 116kts
26-Dec-19 12:04 33.998069 -118.457030 180 4604ft 118kts
26-Dec-19 12:05 33.965755 -118.461001 187 4627ft 120kts
26-Dec-19 12:06 33.932746 -118.464532 179 4625ft 117kts
26-Dec-19 12:07 33.900026 -118.465162 178 4622ft 117kts
26-Dec-19 12:08 33.868569 -118.468509 216 4611ft 121kts
26-Dec-19 12:09 33.874705 -118.504367 310 4597ft 126kts
26-Dec-19 12:10 33.898032 -118.535414 310 4604ft 125kts
26-Dec-19 12:11 33.920979 -118.567414 308 4612ft 125kts
26-Dec-19 12:12 33.943190 -118.599950 308 4618ft 125kts
26-Dec-19 12:13 33.939163 -118.633133 190 4596ft 119kts
26-Dec-19 12:14 33.916928 -118.605825 112 3917ft 134kts
26-Dec-19 12:15 33.900744 -118.559925 112 3005ft 153kts
26-Dec-19 12:16 33.885500 -118.518281 111 2975ft 122kts
26-Dec-19 12:17 33.872453 -118.482845 111 2979ft 113kts
26-Dec-19 12:18 33.858727 -118.445682 112 2982ft 126kts
26-Dec-19 12:19 33.844736 -118.407484 111 2982ft 130kts
26-Dec-19 12:20 33.829779 -118.366723 111 2983ft 133kts
26-Dec-19 12:21 33.814619 -118.328665 123 2768ft 114kts
26-Dec-19 12:22 33.793039 -118.307184 200 1488ft 123kts
26-Dec-19 12:23 33.798610 -118.331475 310 205ft 67kts
26-Dec-19 12:24 33.805431 -118.342307 291 95ft 20kts
26-Dec-19 12:25 33.805981 -118.344923 247 92ft 8kts
26-Dec-19 12:26 33.804005 -118.343547 124 98ft 16kts
26-Dec-19 12:27 33.803012 -118.343661 26 101ft 5kts
26-Dec-19 12:28 33.803078 -118.343612 27 100ft 0kts
26-Dec-19 12:29 33.803078 -118.343612 27 100ft 0kts
26-Dec-19 12:30 33.803078 -118.343612 27 100ft 0kts
26-Dec-19 12:31 33.803078 -118.343612 27 100ft 0kts
26-Dec-19 12:32 33.803078 -118.343612 27 100ft 0kts
26-Dec-19 12:33 33.803078 -118.343612 27 100ft 0kts
26-Dec-19 12:34 33.803078 -118.343612 27 100ft 0kts
26-Dec-19 12:35 33.803078 -118.343612 27 100ft 0kts
26-Dec-19 12:36 33.803078 -118.343612 27 100ft 0kts
26-Dec-19 12:37 33.803078 -118.343612 27 100ft 0kts
26-Dec-19 12:38 33.803078 -118.343612 27 100ft 0kts
26-Dec-19 12:39 33.803078 -118.343612 27 100ft 0kts
26-Dec-19 12:40 33.803078 -118.343612 27 100ft 0kts
26-Dec-19 12:41 33.803078 -118.343612 27 100ft 0kts
26-Dec-19 12:42 33.803078 -118.343612 27 100ft 0kts
26-Dec-19 12:43 33.803078 -118.343612 27 100ft 0kts
26-Dec-19 12:44 33.803078 -118.343612 27 100ft 0kts
26-Dec-19 12:45 33.803078 -118.343612 27 100ft 0kts
26-Dec-19 12:46 33.803078 -118.343612 27 100ft 0kts
26-Dec-19 12:47 33.803078 -118.343612 27 100ft 0kts
26-Dec-19 12:48 33.803078 -118.343612 27 100ft 0kts
26-Dec-19 12:49 33.803078 -118.343612 27 100ft 0kts
26-Dec-19 12:50 33.803078 -118.343612 27 100ft 0kts
26-Dec-19 12:51 33.803078 -118.343612 27 100ft 0kts
26-Dec-19 12:52 33.803078 -118.343612 27 100ft 0kts
26-Dec-19 12:53 33.803078 -118.343612 27 100ft 0kts
26-Dec-19 12:54 33.803078 -118.343612 27 100ft 0kts
26-Dec-19 12:55 33.803078 -118.343612 27 100ft 0kts
26-Dec-19 12:56 33.803078 -118.343612 27 100ft 0kts
26-Dec-19 12:57 33.803078 -118.343612 27 100ft 0kts
26-Dec-19 12:58 33.802958 -118.343192 132 100ft 7kts
26-Dec-19 12:59 33.802304 -118.340937 126 102ft 15kts
26-Dec-19 13:00 33.799065 -118.336105 131 108ft 20kts
26-Dec-19 13:01 33.798646 -118.333420 45 106ft 0kts
26-Dec-19 13:02 33.798646 -118.333420 45 106ft 0kts
26-Dec-19 13:03 33.798646 -118.333420 45 106ft 0kts
26-Dec-19 13:04 33.798646 -118.333420 45 106ft 0kts
26-Dec-19 13:05 33.798807 -118.333359 356 106ft 8kts
26-Dec-19 13:06 33.799241 -118.333181 36 105ft 9kts
26-Dec-19 13:07 33.809220 -118.348104 309 400ft 95kts
26-Dec-19 13:08 33.826633 -118.375907 304 1306ft 109kts
26-Dec-19 13:09 33.843492 -118.407114 304 2239ft 115kts
26-Dec-19 13:10 33.857307 -118.443427 240 2972ft 134kts
26-Dec-19 13:11 33.825607 -118.443791 169 3788ft 123kts
26-Dec-19 13:12 33.787801 -118.446126 183 3973ft 143kts
26-Dec-19 13:13 33.750390 -118.440624 127 3975ft 141kts
26-Dec-19 13:14 33.757935 -118.397288 61 3973ft 145kts
26-Dec-19 13:15 33.765379 -118.350670 86 3973ft 145kts
26-Dec-19 13:16 33.768677 -118.302288 86 3973ft 147kts
26-Dec-19 13:17 33.771734 -118.253542 86 3972ft 147kts
26-Dec-19 13:18 33.801351 -118.231423 339 3975ft 156kts
26-Dec-19 13:19 33.834364 -118.265074 317 3973ft 159kts
26-Dec-19 13:20 33.866010 -118.299951 318 3973ft 160kts
26-Dec-19 13:21 33.898447 -118.335236 318 3973ft 161kts
26-Dec-19 13:22 33.930172 -118.369744 318 3973ft 161kts
26-Dec-19 13:23 33.963425 -118.405998 318 3973ft 161kts
26-Dec-19 13:24 33.996575 -118.442135 318 3972ft 160kts
26-Dec-19 13:25 34.032995 -118.471491 333 3972ft 158kts
26-Dec-19 13:26 34.071691 -118.496492 333 3973ft 157kts
26-Dec-19 13:27 34.109479 -118.520829 333 4007ft 157kts
26-Dec-19 13:28 34.147701 -118.545468 333 4076ft 157kts
26-Dec-19 13:29 34.184409 -118.569196 333 4560ft 148kts
26-Dec-19 13:30 34.223766 -118.577337 356 4989ft 147kts
26-Dec-19 13:31 34.264511 -118.581452 356 4991ft 149kts
26-Dec-19 13:32 34.304958 -118.585525 356 4991ft 149kts
26-Dec-19 13:34 34.346390 -118.589381 356 4990ft 149kts
26-Dec-19 13:35 34.387328 -118.592584 356 5000ft 149kts
26-Dec-19 13:36 34.429228 -118.596727 356 5000ft 152kts
26-Dec-19 13:37 34.471266 -118.601117 356 5001ft 152kts
26-Dec-19 13:38 34.509522 -118.590801 61 5053ft 145kts
26-Dec-19 13:39 34.511531 -118.543847 92 5202ft 145kts
26-Dec-19 13:40 34.484693 -118.514996 186 5246ft 147kts
26-Dec-19 13:41 34.443302 -118.513842 173 5217ft 149kts
26-Dec-19 13:42 34.401910 -118.508022 175 5190ft 151kts
26-Dec-19 13:43 34.359827 -118.504967 174 4762ft 152kts
26-Dec-19 13:44 34.317482 -118.501468 173 3466ft 150kts
26-Dec-19 13:45 34.282444 -118.497878 170 2548ft 118kts
26-Dec-19 13:46 34.250731 -118.494070 177 1792ft 118kts
26-Dec-19 13:47 34.219065 -118.491182 176 1238ft 120kts
26-Dec-19 13:48 34.184955 -118.486903 158 1661ft 126kts
26-Dec-19 13:49 34.154267 -118.469460 169 2227ft 121kts
26-Dec-19 13:50 34.121599 -118.463013 166 2816ft 119kts
26-Dec-19 13:51 34.089644 -118.456194 173 3391ft 118kts
26-Dec-19 13:51 34.062185 -118.456814 177 3973ft 120kts
26-Dec-19 13:53 34.022646 -118.453675 177 4650ft 137kts
26-Dec-19 13:54 33.997142 -118.474864 293 4613ft 145kts
26-Dec-19 13:54 34.011934 -118.510621 295 4585ft 140kts
26-Dec-19 13:55 34.028612 -118.552160 293 4619ft 138kts
26-Dec-19 13:57 34.043533 -118.607086 284 4619ft 152kts
26-Dec-19 13:58 34.052928 -118.655067 281 4618ft 154kts
26-Dec-19 13:58 34.059992 -118.697844 280 4617ft 154kts
26-Dec-19 13:59 34.068129 -118.748712 280 4610ft 155kts
26-Dec-19 14:00 34.076095 -118.799387 281 4607ft 153kts
26-Dec-19 14:01 34.084031 -118.850182 280 4605ft 154kts
26-Dec-19 14:02 34.091931 -118.900910 281 4602ft 154kts
26-Dec-19 14:03 34.099794 -118.951744 281 4599ft 154kts
26-Dec-19 14:04 34.107386 -119.002722 281 4597ft 155kts
26-Dec-19 14:05 34.114875 -119.053721 281 4597ft 155kts
26-Dec-19 14:06 34.143686 -119.085484 341 4601ft 149kts
26-Dec-19 14:07 34.182830 -119.099277 12 4605ft 147kts
26-Dec-19 14:08 34.194249 -119.060755 126 4610ft 148kts
26-Dec-19 14:09 34.154473 -119.047876 172 4605ft 153kts
26-Dec-19 14:10 34.111839 -119.043272 172 4597ft 153kts
26-Dec-19 14:11 34.092716 -119.008646 62 4595ft 145kts
26-Dec-19 14:12 34.127632 -119.005534 325 4601ft 151kts
26-Dec-19 14:13 34.152587 -119.043265 265 4606ft 155kts
26-Dec-19 14:14 34.120725 -119.065241 151 4600ft 151kts
26-Dec-19 14:15 34.098124 -119.025604 86 4596ft 146kts
26-Dec-19 14:16 34.122800 -118.988757 42 4599ft 146kts
26-Dec-19 14:17 34.149867 -118.953679 67 4603ft 145kts
26-Dec-19 14:18 34.164425 -118.910232 67 4602ft 146kts
26-Dec-19 14:19 34.179472 -118.865936 67 4600ft 147kts
26-Dec-19 14:20 34.195299 -118.819984 67 4606ft 146kts
26-Dec-19 14:21 34.210596 -118.774956 75 4615ft 145kts
26-Dec-19 14:22 34.202419 -118.729103 102 3987ft 141kts
26-Dec-19 14:23 34.201134 -118.683596 88 3453ft 137kts
26-Dec-19 14:24 34.200055 -118.642570 91 3397ft 118kts
26-Dec-19 14:25 34.198849 -118.604772 87 3290ft 111kts
26-Dec-19 14:26 34.200011 -118.569423 89 2395ft 99kts
26-Dec-19 14:27 34.198584 -118.535457 85 1830ft 107kts
26-Dec-19 14:28 34.193971 -118.503366 120 1456ft 95kts
26-Dec-19 14:29 34.199765 -118.488114 349 1030ft 61kts
26-Dec-19 14:30 34.212313 -118.489369 355 806ft 16kts
26-Dec-19 14:31 34.213330 -118.488996 79 806ft 0kts
26-Dec-19 14:32 34.213908 -118.488750 2 806ft 10kts
26-Dec-19 14:33 34.217542 -118.489357 355 806ft 15kts
26-Dec-19 14:34 34.218774 -118.489539 331 806ft 0kts
26-Dec-19 14:35 34.218858 -118.491001 262 806ft 22kts
26-Dec-19 14:36 34.216810 -118.493858 226 806ft 10kts
26-Dec-19 14:37 34.217639 -118.495159 297 806ft 15kts
26-Dec-19 14:38 34.219146 -118.497007 330 806ft 0kts
26-Dec-19 14:39 34.219146 -118.497007 330 806ft 0kts
26-Dec-19 14:40 34.219146 -118.497007 330 806ft 0kts

Navigation Log

Ident Type
Flight plan parsing failed, navigation log unavailable